sensor_id;sensor_type;location;lat;lon;timestamp;temperature;humidity
74368;DHT22;64991;41.090;-8.118;2023-07-02T00:00:52;26.90;79.60
74368;DHT22;64991;41.090;-8.118;2023-07-02T00:05:56;27.00;79.70
74368;DHT22;64991;41.090;-8.118;2023-07-02T00:11:01;26.90;79.50
74368;DHT22;64991;41.090;-8.118;2023-07-02T00:16:05;27.00;79.80
74368;DHT22;64991;41.090;-8.118;2023-07-02T00:21:08;27.00;79.50
74368;DHT22;64991;41.090;-8.118;2023-07-02T00:26:16;27.00;79.90
74368;DHT22;64991;41.090;-8.118;2023-07-02T00:31:20;27.00;79.70
74368;DHT22;64991;41.090;-8.118;2023-07-02T00:36:23;27.00;80.00
74368;DHT22;64991;41.090;-8.118;2023-07-02T00:41:28;27.00;79.60
74368;DHT22;64991;41.090;-8.118;2023-07-02T00:46:32;27.00;80.00
74368;DHT22;64991;41.090;-8.118;2023-07-02T00:51:35;27.00;80.10
74368;DHT22;64991;41.090;-8.118;2023-07-02T00:56:41;27.00;80.00
74368;DHT22;64991;41.090;-8.118;2023-07-02T01:01:44;26.90;80.00
74368;DHT22;64991;41.090;-8.118;2023-07-02T01:06:51;26.90;80.10
74368;DHT22;64991;41.090;-8.118;2023-07-02T01:12:01;26.90;80.00
74368;DHT22;64991;41.090;-8.118;2023-07-02T01:17:06;27.00;79.90
74368;DHT22;64991;41.090;-8.118;2023-07-02T01:22:12;26.90;80.00
74368;DHT22;64991;41.090;-8.118;2023-07-02T01:27:16;27.00;79.90
74368;DHT22;64991;41.090;-8.118;2023-07-02T01:32:21;27.00;80.20
74368;DHT22;64991;41.090;-8.118;2023-07-02T01:37:26;26.90;80.30
74368;DHT22;64991;41.090;-8.118;2023-07-02T01:42:29;27.00;80.10
74368;DHT22;64991;41.090;-8.118;2023-07-02T01:47:33;27.00;80.40
74368;DHT22;64991;41.090;-8.118;2023-07-02T01:52:38;27.00;80.20
74368;DHT22;64991;41.090;-8.118;2023-07-02T01:57:41;27.00;79.90
74368;DHT22;64991;41.090;-8.118;2023-07-02T02:02:45;26.90;79.90
74368;DHT22;64991;41.090;-8.118;2023-07-02T02:07:50;27.00;80.00
74368;DHT22;64991;41.090;-8.118;2023-07-02T02:12:53;26.90;80.00
74368;DHT22;64991;41.090;-8.118;2023-07-02T02:17:56;26.90;80.00
74368;DHT22;64991;41.090;-8.118;2023-07-02T02:23:01;26.90;79.70
74368;DHT22;64991;41.090;-8.118;2023-07-02T02:28:05;26.90;79.60
74368;DHT22;64991;41.090;-8.118;2023-07-02T02:33:08;27.00;79.50
74368;DHT22;64991;41.090;-8.118;2023-07-02T02:38:13;26.90;79.80
74368;DHT22;64991;41.090;-8.118;2023-07-02T02:43:17;26.90;79.40
74368;DHT22;64991;41.090;-8.118;2023-07-02T02:48:22;26.90;79.20
74368;DHT22;64991;41.090;-8.118;2023-07-02T02:53:27;26.90;78.70
74368;DHT22;64991;41.090;-8.118;2023-07-02T02:58:30;26.90;78.60
74368;DHT22;64991;41.090;-8.118;2023-07-02T03:03:34;26.80;78.80
74368;DHT22;64991;41.090;-8.118;2023-07-02T03:08:42;26.90;78.60
74368;DHT22;64991;41.090;-8.118;2023-07-02T03:13:45;26.90;78.40
74368;DHT22;64991;41.090;-8.118;2023-07-02T03:18:49;26.90;78.30
74368;DHT22;64991;41.090;-8.118;2023-07-02T03:23:54;27.00;78.20
74368;DHT22;64991;41.090;-8.118;2023-07-02T03:28:57;26.80;78.20
74368;DHT22;64991;41.090;-8.118;2023-07-02T03:34:02;26.80;78.10
74368;DHT22;64991;41.090;-8.118;2023-07-02T03:39:08;26.90;77.70
74368;DHT22;64991;41.090;-8.118;2023-07-02T03:44:11;26.90;77.30
74368;DHT22;64991;41.090;-8.118;2023-07-02T03:49:15;26.90;77.00
74368;DHT22;64991;41.090;-8.118;2023-07-02T03:54:20;26.80;76.70
74368;DHT22;64991;41.090;-8.118;2023-07-02T03:59:24;26.80;76.70
74368;DHT22;64991;41.090;-8.118;2023-07-02T04:04:27;26.90;76.40
74368;DHT22;64991;41.090;-8.118;2023-07-02T04:09:32;26.90;76.40
74368;DHT22;64991;41.090;-8.118;2023-07-02T04:14:36;26.80;75.50
74368;DHT22;64991;41.090;-8.118;2023-07-02T04:19:39;26.80;75.30
74368;DHT22;64991;41.090;-8.118;2023-07-02T04:24:44;26.80;75.10
74368;DHT22;64991;41.090;-8.118;2023-07-02T04:29:53;26.80;74.30
74368;DHT22;64991;41.090;-8.118;2023-07-02T04:34:58;26.90;73.90
74368;DHT22;64991;41.090;-8.118;2023-07-02T04:40:03;26.80;73.60
74368;DHT22;64991;41.090;-8.118;2023-07-02T04:45:09;26.80;73.50
74368;DHT22;64991;41.090;-8.118;2023-07-02T04:50:18;26.80;73.10
74368;DHT22;64991;41.090;-8.118;2023-07-02T04:55:23;26.80;73.30
74368;DHT22;64991;41.090;-8.118;2023-07-02T05:00:26;26.80;73.10
74368;DHT22;64991;41.090;-8.118;2023-07-02T05:05:30;26.80;73.10
74368;DHT22;64991;41.090;-8.118;2023-07-02T05:10:35;26.80;73.20
74368;DHT22;64991;41.090;-8.118;2023-07-02T05:15:39;26.90;73.40
74368;DHT22;64991;41.090;-8.118;2023-07-02T05:20:44;26.90;73.40
74368;DHT22;64991;41.090;-8.118;2023-07-02T05:25:50;26.90;73.30
74368;DHT22;64991;41.090;-8.118;2023-07-02T05:30:53;26.90;73.40
74368;DHT22;64991;41.090;-8.118;2023-07-02T05:35:56;26.90;73.40
74368;DHT22;64991;41.090;-8.118;2023-07-02T05:41:01;26.90;73.60
74368;DHT22;64991;41.090;-8.118;2023-07-02T05:46:05;26.80;73.60
74368;DHT22;64991;41.090;-8.118;2023-07-02T05:51:09;26.90;73.70
74368;DHT22;64991;41.090;-8.118;2023-07-02T05:56:13;26.80;73.50
74368;DHT22;64991;41.090;-8.118;2023-07-02T06:01:17;26.90;73.50
74368;DHT22;64991;41.090;-8.118;2023-07-02T06:06:21;27.00;73.60
74368;DHT22;64991;41.090;-8.118;2023-07-02T06:11:27;26.90;73.30
74368;DHT22;64991;41.090;-8.118;2023-07-02T06:16:31;26.90;73.20
74368;DHT22;64991;41.090;-8.118;2023-07-02T06:21:35;26.80;73.40
74368;DHT22;64991;41.090;-8.118;2023-07-02T06:26:40;26.90;73.30
74368;DHT22;64991;41.090;-8.118;2023-07-02T06:31:44;26.90;73.30
74368;DHT22;64991;41.090;-8.118;2023-07-02T06:36:47;26.90;73.10
74368;DHT22;64991;41.090;-8.118;2023-07-02T06:41:52;27.00;73.10
74368;DHT22;64991;41.090;-8.118;2023-07-02T06:46:56;27.00;72.80
74368;DHT22;64991;41.090;-8.118;2023-07-02T06:51:59;27.00;72.50
74368;DHT22;64991;41.090;-8.118;2023-07-02T06:57:05;26.90;72.20
74368;DHT22;64991;41.090;-8.118;2023-07-02T07:02:08;27.10;72.10
74368;DHT22;64991;41.090;-8.118;2023-07-02T07:07:12;27.00;72.40
74368;DHT22;64991;41.090;-8.118;2023-07-02T07:12:17;26.90;69.70
74368;DHT22;64991;41.090;-8.118;2023-07-02T07:17:21;26.90;69.00
74368;DHT22;64991;41.090;-8.118;2023-07-02T07:22:24;27.00;68.70
74368;DHT22;64991;41.090;-8.118;2023-07-02T07:27:29;26.90;67.90
74368;DHT22;64991;41.090;-8.118;2023-07-02T07:32:32;27.00;67.40
74368;DHT22;64991;41.090;-8.118;2023-07-02T07:37:36;27.00;67.40
74368;DHT22;64991;41.090;-8.118;2023-07-02T07:42:41;27.10;67.20
74368;DHT22;64991;41.090;-8.118;2023-07-02T07:47:45;27.20;67.20
74368;DHT22;64991;41.090;-8.118;2023-07-02T07:52:48;27.20;67.40
74368;DHT22;64991;41.090;-8.118;2023-07-02T07:57:54;27.20;67.50
74368;DHT22;64991;41.090;-8.118;2023-07-02T08:02:57;27.20;67.70
74368;DHT22;64991;41.090;-8.118;2023-07-02T08:08:02;27.30;67.30
74368;DHT22;64991;41.090;-8.118;2023-07-02T08:13:08;27.20;67.20
74368;DHT22;64991;41.090;-8.118;2023-07-02T08:18:13;27.30;66.80
74368;DHT22;64991;41.090;-8.118;2023-07-02T08:23:16;27.40;66.50
74368;DHT22;64991;41.090;-8.118;2023-07-02T08:28:21;27.40;66.20
74368;DHT22;64991;41.090;-8.118;2023-07-02T08:33:24;27.40;65.70
74368;DHT22;64991;41.090;-8.118;2023-07-02T08:38:28;27.40;66.10
74368;DHT22;64991;41.090;-8.118;2023-07-02T08:43:33;27.40;66.50
74368;DHT22;64991;41.090;-8.118;2023-07-02T08:48:37;27.40;66.30
74368;DHT22;64991;41.090;-8.118;2023-07-02T08:53:40;27.50;66.00
74368;DHT22;64991;41.090;-8.118;2023-07-02T08:58:45;27.50;66.00
74368;DHT22;64991;41.090;-8.118;2023-07-02T09:03:49;27.50;66.10
74368;DHT22;64991;41.090;-8.118;2023-07-02T09:08:52;27.60;66.40
74368;DHT22;64991;41.090;-8.118;2023-07-02T09:13:57;27.50;66.70
74368;DHT22;64991;41.090;-8.118;2023-07-02T09:19:02;27.60;66.10
74368;DHT22;64991;41.090;-8.118;2023-07-02T09:24:13;27.50;66.70
74368;DHT22;64991;41.090;-8.118;2023-07-02T09:29:21;27.40;67.10
74368;DHT22;64991;41.090;-8.118;2023-07-02T09:34:28;27.40;67.40
74368;DHT22;64991;41.090;-8.118;2023-07-02T09:39:33;27.40;67.60
74368;DHT22;64991;41.090;-8.118;2023-07-02T09:44:39;27.30;67.90
74368;DHT22;64991;41.090;-8.118;2023-07-02T09:49:47;27.30;68.20
74368;DHT22;64991;41.090;-8.118;2023-07-02T09:54:52;27.40;68.50
74368;DHT22;64991;41.090;-8.118;2023-07-02T09:59:57;27.30;68.80
74368;DHT22;64991;41.090;-8.118;2023-07-02T10:05:02;27.30;68.80
74368;DHT22;64991;41.090;-8.118;2023-07-02T10:10:07;27.30;69.10
74368;DHT22;64991;41.090;-8.118;2023-07-02T10:15:12;27.40;69.50
74368;DHT22;64991;41.090;-8.118;2023-07-02T10:20:34;27.30;69.10
74368;DHT22;64991;41.090;-8.118;2023-07-02T10:25:39;27.30;69.50
74368;DHT22;64991;41.090;-8.118;2023-07-02T10:30:44;27.30;69.10
74368;DHT22;64991;41.090;-8.118;2023-07-02T10:35:48;27.30;68.90
74368;DHT22;64991;41.090;-8.118;2023-07-02T10:40:55;27.30;68.80
74368;DHT22;64991;41.090;-8.118;2023-07-02T10:46:01;27.30;69.60
74368;DHT22;64991;41.090;-8.118;2023-07-02T10:51:10;27.30;69.60
74368;DHT22;64991;41.090;-8.118;2023-07-02T10:56:18;27.30;69.10
74368;DHT22;64991;41.090;-8.118;2023-07-02T11:01:23;27.30;69.60
74368;DHT22;64991;41.090;-8.118;2023-07-02T11:06:27;27.30;70.00
74368;DHT22;64991;41.090;-8.118;2023-07-02T11:11:34;27.30;70.40
74368;DHT22;64991;41.090;-8.118;2023-07-02T11:16:39;27.40;70.30
74368;DHT22;64991;41.090;-8.118;2023-07-02T11:21:50;27.40;70.50
74368;DHT22;64991;41.090;-8.118;2023-07-02T11:26:54;27.40;70.60
74368;DHT22;64991;41.090;-8.118;2023-07-02T11:32:06;27.40;70.40
74368;DHT22;64991;41.090;-8.118;2023-07-02T11:37:11;27.40;70.60
74368;DHT22;64991;41.090;-8.118;2023-07-02T11:42:14;27.40;70.70
74368;DHT22;64991;41.090;-8.118;2023-07-02T11:47:19;27.30;70.70
74368;DHT22;64991;41.090;-8.118;2023-07-02T11:52:23;27.30;70.90
74368;DHT22;64991;41.090;-8.118;2023-07-02T11:57:26;27.40;70.90
74368;DHT22;64991;41.090;-8.118;2023-07-02T12:02:31;27.30;71.00
74368;DHT22;64991;41.090;-8.118;2023-07-02T12:07:35;27.40;71.20
74368;DHT22;64991;41.090;-8.118;2023-07-02T12:12:38;27.40;71.50
74368;DHT22;64991;41.090;-8.118;2023-07-02T12:17:43;27.40;71.80
74368;DHT22;64991;41.090;-8.118;2023-07-02T12:22:47;27.30;71.80
74368;DHT22;64991;41.090;-8.118;2023-07-02T12:27:50;27.30;72.10
74368;DHT22;64991;41.090;-8.118;2023-07-02T12:32:55;27.30;71.70
74368;DHT22;64991;41.090;-8.118;2023-07-02T12:37:59;27.40;72.40
74368;DHT22;64991;41.090;-8.118;2023-07-02T12:43:05;27.30;72.20
74368;DHT22;64991;41.090;-8.118;2023-07-02T12:48:10;27.40;72.20
74368;DHT22;64991;41.090;-8.118;2023-07-02T12:53:14;27.40;72.40
74368;DHT22;64991;41.090;-8.118;2023-07-02T12:58:17;27.40;72.50
74368;DHT22;64991;41.090;-8.118;2023-07-02T13:03:22;27.40;72.60
74368;DHT22;64991;41.090;-8.118;2023-07-02T13:08:27;27.40;72.70
74368;DHT22;64991;41.090;-8.118;2023-07-02T13:13:31;27.40;72.90
74368;DHT22;64991;41.090;-8.118;2023-07-02T13:18:35;27.40;73.10
74368;DHT22;64991;41.090;-8.118;2023-07-02T13:23:39;27.40;73.30
74368;DHT22;64991;41.090;-8.118;2023-07-02T13:28:43;27.40;73.30
74368;DHT22;64991;41.090;-8.118;2023-07-02T13:33:50;27.40;73.50
74368;DHT22;64991;41.090;-8.118;2023-07-02T13:38:54;27.40;73.60
74368;DHT22;64991;41.090;-8.118;2023-07-02T13:43:57;27.40;73.90
74368;DHT22;64991;41.090;-8.118;2023-07-02T13:49:04;27.40;74.20
74368;DHT22;64991;41.090;-8.118;2023-07-02T13:54:11;27.40;73.90
74368;DHT22;64991;41.090;-8.118;2023-07-02T13:59:18;27.40;74.00
74368;DHT22;64991;41.090;-8.118;2023-07-02T14:04:22;27.40;74.00
74368;DHT22;64991;41.090;-8.118;2023-07-02T14:09:25;27.50;73.90
74368;DHT22;64991;41.090;-8.118;2023-07-02T14:14:30;27.40;74.10
74368;DHT22;64991;41.090;-8.118;2023-07-02T14:19:34;27.40;73.90
74368;DHT22;64991;41.090;-8.118;2023-07-02T14:24:37;27.40;73.90
74368;DHT22;64991;41.090;-8.118;2023-07-02T14:29:42;27.50;74.00
74368;DHT22;64991;41.090;-8.118;2023-07-02T14:34:46;27.50;74.40
74368;DHT22;64991;41.090;-8.118;2023-07-02T14:39:49;27.50;74.10
74368;DHT22;64991;41.090;-8.118;2023-07-02T14:45:14;27.50;74.30
74368;DHT22;64991;41.090;-8.118;2023-07-02T14:50:18;27.50;74.10
74368;DHT22;64991;41.090;-8.118;2023-07-02T14:55:21;27.50;74.40
74368;DHT22;64991;41.090;-8.118;2023-07-02T15:00:26;27.50;74.40
74368;DHT22;64991;41.090;-8.118;2023-07-02T15:05:30;27.50;74.40
74368;DHT22;64991;41.090;-8.118;2023-07-02T15:10:33;27.60;74.50
74368;DHT22;64991;41.090;-8.118;2023-07-02T15:15:40;27.60;75.00
74368;DHT22;64991;41.090;-8.118;2023-07-02T15:20:46;27.70;75.00
74368;DHT22;64991;41.090;-8.118;2023-07-02T15:25:50;27.70;75.20
74368;DHT22;64991;41.090;-8.118;2023-07-02T15:30:56;27.70;75.30
74368;DHT22;64991;41.090;-8.118;2023-07-02T15:36:03;27.70;75.40
74368;DHT22;64991;41.090;-8.118;2023-07-02T15:41:08;27.70;76.10
74368;DHT22;64991;41.090;-8.118;2023-07-02T15:46:15;27.90;75.80
74368;DHT22;64991;41.090;-8.118;2023-07-02T15:51:19;27.80;76.10
74368;DHT22;64991;41.090;-8.118;2023-07-02T15:56:25;27.70;76.30
74368;DHT22;64991;41.090;-8.118;2023-07-02T16:01:30;27.80;76.30
74368;DHT22;64991;41.090;-8.118;2023-07-02T16:06:36;27.80;76.40
74368;DHT22;64991;41.090;-8.118;2023-07-02T16:11:39;27.80;76.40
74368;DHT22;64991;41.090;-8.118;2023-07-02T16:16:46;27.80;76.60
74368;DHT22;64991;41.090;-8.118;2023-07-02T16:21:56;27.80;76.70
74368;DHT22;64991;41.090;-8.118;2023-07-02T16:26:59;27.90;77.10
74368;DHT22;64991;41.090;-8.118;2023-07-02T16:32:06;27.80;77.40
74368;DHT22;64991;41.090;-8.118;2023-07-02T16:37:12;27.80;77.60
74368;DHT22;64991;41.090;-8.118;2023-07-02T16:42:15;27.80;77.50
74368;DHT22;64991;41.090;-8.118;2023-07-02T16:47:20;27.70;77.50
74368;DHT22;64991;41.090;-8.118;2023-07-02T16:52:24;27.90;78.30
74368;DHT22;64991;41.090;-8.118;2023-07-02T16:57:45;27.90;77.80
74368;DHT22;64991;41.090;-8.118;2023-07-02T17:02:50;27.90;77.50
74368;DHT22;64991;41.090;-8.118;2023-07-02T17:07:54;27.80;77.70
74368;DHT22;64991;41.090;-8.118;2023-07-02T17:12:57;27.80;77.70
74368;DHT22;64991;41.090;-8.118;2023-07-02T17:18:02;27.90;77.80
74368;DHT22;64991;41.090;-8.118;2023-07-02T17:23:06;27.90;77.60
74368;DHT22;64991;41.090;-8.118;2023-07-02T17:28:09;27.90;77.70
74368;DHT22;64991;41.090;-8.118;2023-07-02T17:33:14;27.80;77.70
74368;DHT22;64991;41.090;-8.118;2023-07-02T17:38:18;27.80;77.70
74368;DHT22;64991;41.090;-8.118;2023-07-02T17:43:22;27.80;77.70
74368;DHT22;64991;41.090;-8.118;2023-07-02T17:48:27;27.90;77.30
74368;DHT22;64991;41.090;-8.118;2023-07-02T17:53:31;27.90;77.50
74368;DHT22;64991;41.090;-8.118;2023-07-02T17:58:35;27.90;77.30
74368;DHT22;64991;41.090;-8.118;2023-07-02T18:03:40;27.90;77.70
74368;DHT22;64991;41.090;-8.118;2023-07-02T18:09:00;27.90;77.80
74368;DHT22;64991;41.090;-8.118;2023-07-02T18:14:06;27.80;77.90
74368;DHT22;64991;41.090;-8.118;2023-07-02T18:19:11;27.90;77.90
74368;DHT22;64991;41.090;-8.118;2023-07-02T18:24:15;27.90;77.70
74368;DHT22;64991;41.090;-8.118;2023-07-02T18:29:36;27.90;77.80
74368;DHT22;64991;41.090;-8.118;2023-07-02T18:34:42;27.80;77.90
74368;DHT22;64991;41.090;-8.118;2023-07-02T18:39:47;27.90;77.90
74368;DHT22;64991;41.090;-8.118;2023-07-02T18:44:52;27.90;78.10
74368;DHT22;64991;41.090;-8.118;2023-07-02T18:49:57;27.90;77.90
74368;DHT22;64991;41.090;-8.118;2023-07-02T18:55:00;27.90;77.80
74368;DHT22;64991;41.090;-8.118;2023-07-02T19:00:04;28.00;77.30
74368;DHT22;64991;41.090;-8.118;2023-07-02T19:05:12;27.90;77.70
74368;DHT22;64991;41.090;-8.118;2023-07-02T19:10:15;27.90;77.80
74368;DHT22;64991;41.090;-8.118;2023-07-02T19:15:36;27.90;77.60
74368;DHT22;64991;41.090;-8.118;2023-07-02T19:20:41;27.80;77.50
74368;DHT22;64991;41.090;-8.118;2023-07-02T19:25:45;27.80;77.70
74368;DHT22;64991;41.090;-8.118;2023-07-02T19:31:06;27.90;77.50
74368;DHT22;64991;41.090;-8.118;2023-07-02T19:36:29;27.80;77.20
74368;DHT22;64991;41.090;-8.118;2023-07-02T19:41:32;27.90;77.30
74368;DHT22;64991;41.090;-8.118;2023-07-02T19:46:36;27.80;77.50
74368;DHT22;64991;41.090;-8.118;2023-07-02T19:51:41;27.90;77.50
74368;DHT22;64991;41.090;-8.118;2023-07-02T19:57:07;27.90;77.50
74368;DHT22;64991;41.090;-8.118;2023-07-02T20:02:15;27.90;77.50
74368;DHT22;64991;41.090;-8.118;2023-07-02T20:07:22;27.80;77.70
74368;DHT22;64991;41.090;-8.118;2023-07-02T20:12:26;27.70;77.60
74368;DHT22;64991;41.090;-8.118;2023-07-02T20:17:30;27.80;77.40
74368;DHT22;64991;41.090;-8.118;2023-07-02T20:22:37;27.70;77.70
74368;DHT22;64991;41.090;-8.118;2023-07-02T20:27:42;27.80;78.00
74368;DHT22;64991;41.090;-8.118;2023-07-02T20:32:46;27.80;77.10
74368;DHT22;64991;41.090;-8.118;2023-07-02T20:37:51;27.80;77.00
74368;DHT22;64991;41.090;-8.118;2023-07-02T20:42:57;27.90;76.70
74368;DHT22;64991;41.090;-8.118;2023-07-02T20:48:17;27.80;76.60
74368;DHT22;64991;41.090;-8.118;2023-07-02T20:53:40;27.90;76.00
74368;DHT22;64991;41.090;-8.118;2023-07-02T20:58:43;27.80;76.10
74368;DHT22;64991;41.090;-8.118;2023-07-02T21:03:47;27.90;75.80
74368;DHT22;64991;41.090;-8.118;2023-07-02T21:08:52;27.70;76.10
74368;DHT22;64991;41.090;-8.118;2023-07-02T21:13:55;27.80;76.00
74368;DHT22;64991;41.090;-8.118;2023-07-02T21:18:59;27.70;75.70
74368;DHT22;64991;41.090;-8.118;2023-07-02T21:24:04;27.70;75.80
74368;DHT22;64991;41.090;-8.118;2023-07-02T21:29:08;27.80;75.70
74368;DHT22;64991;41.090;-8.118;2023-07-02T21:34:12;27.80;75.50
74368;DHT22;64991;41.090;-8.118;2023-07-02T21:39:17;27.80;75.60
74368;DHT22;64991;41.090;-8.118;2023-07-02T21:44:20;27.80;75.60
74368;DHT22;64991;41.090;-8.118;2023-07-02T21:49:23;27.70;75.50
74368;DHT22;64991;41.090;-8.118;2023-07-02T21:54:29;27.70;75.60
74368;DHT22;64991;41.090;-8.118;2023-07-02T21:59:32;27.70;75.50
74368;DHT22;64991;41.090;-8.118;2023-07-02T22:04:35;27.70;75.50
74368;DHT22;64991;41.090;-8.118;2023-07-02T22:09:41;27.70;75.40
74368;DHT22;64991;41.090;-8.118;2023-07-02T22:14:44;27.60;75.40
74368;DHT22;64991;41.090;-8.118;2023-07-02T22:19:48;27.60;75.40
74368;DHT22;64991;41.090;-8.118;2023-07-02T22:24:52;27.60;75.50
74368;DHT22;64991;41.090;-8.118;2023-07-02T22:29:56;27.60;75.20
74368;DHT22;64991;41.090;-8.118;2023-07-02T22:34:59;27.60;74.90
74368;DHT22;64991;41.090;-8.118;2023-07-02T22:40:05;27.50;74.90
74368;DHT22;64991;41.090;-8.118;2023-07-02T22:45:15;27.60;74.70
74368;DHT22;64991;41.090;-8.118;2023-07-02T22:50:23;27.50;74.90
74368;DHT22;64991;41.090;-8.118;2023-07-02T22:55:29;27.50;74.90
74368;DHT22;64991;41.090;-8.118;2023-07-02T23:00:33;27.50;74.80
74368;DHT22;64991;41.090;-8.118;2023-07-02T23:05:36;27.40;74.90
74368;DHT22;64991;41.090;-8.118;2023-07-02T23:10:41;27.40;74.90
74368;DHT22;64991;41.090;-8.118;2023-07-02T23:15:45;27.40;74.90
74368;DHT22;64991;41.090;-8.118;2023-07-02T23:20:52;27.40;75.10
74368;DHT22;64991;41.090;-8.118;2023-07-02T23:25:57;27.40;74.80
74368;DHT22;64991;41.090;-8.118;2023-07-02T23:31:01;27.40;74.80
74368;DHT22;64991;41.090;-8.118;2023-07-02T23:41:30;27.40;74.80
74368;DHT22;64991;41.090;-8.118;2023-07-02T23:46:33;27.30;74.70
74368;DHT22;64991;41.090;-8.118;2023-07-02T23:51:37;27.30;74.80
74368;DHT22;64991;41.090;-8.118;2023-07-02T23:56:42;27.30;74.60
